createdAt,value
2023-02-22T00:01:35.638Z,94082.13
2023-02-22T00:04:04.756Z,94081.72
2023-02-22T00:06:31.427Z,94076.69
2023-02-22T00:08:59.002Z,94087.38
2023-02-22T00:11:26.553Z,94090.44
2023-02-22T00:13:57.311Z,94100.84
2023-02-22T00:16:25.982Z,94103.00
2023-02-22T00:18:53.326Z,94101.41
2023-02-22T00:21:23.024Z,94093.31
2023-02-22T00:23:50.192Z,94091.09
2023-02-22T00:26:20.493Z,94090.50
2023-02-22T00:28:49.150Z,94088.78
2023-02-22T00:31:16.337Z,94092.47
2023-02-22T00:33:43.451Z,94087.56
2023-02-22T00:36:11.896Z,94084.53
2023-02-22T00:38:39.482Z,94080.47
2023-02-22T00:41:07.321Z,94081.97
2023-02-22T00:43:34.305Z,94076.44
2023-02-22T00:46:01.153Z,94069.00
2023-02-22T00:48:28.367Z,94066.63
2023-02-22T00:50:57.767Z,94067.22
2023-02-22T00:53:25.545Z,94070.25
2023-02-22T00:55:53.134Z,94063.88
2023-02-22T00:58:20.750Z,94054.59
2023-02-22T01:00:48.937Z,94056.44
2023-02-22T01:03:18.705Z,94049.34
2023-02-22T01:05:45.897Z,94054.28
2023-02-22T01:08:14.683Z,94054.16
2023-02-22T01:10:41.711Z,94053.28
2023-02-22T01:13:09.688Z,94044.63
2023-02-22T01:15:38.191Z,94046.13
2023-02-22T01:18:05.492Z,94046.97
2023-02-22T01:20:32.845Z,94046.03
2023-02-22T01:23:03.487Z,94042.78
2023-02-22T01:25:31.834Z,94034.94
2023-02-22T01:28:00.926Z,94037.25
2023-02-22T01:30:31.162Z,94035.59
2023-02-22T01:32:58.192Z,94042.22
2023-02-22T01:35:28.527Z,94032.03
2023-02-22T01:37:56.323Z,94039.28
2023-02-22T01:40:30.637Z,94034.88
2023-02-22T01:43:01.150Z,94046.75
2023-02-22T01:45:30.749Z,94039.00
2023-02-22T01:48:19.853Z,94038.28
2023-02-22T01:51:11.330Z,94038.03
2023-02-22T01:53:47.593Z,94044.03
2023-02-22T01:56:15.336Z,94044.66
2023-02-22T01:58:46.519Z,94043.09
2023-02-22T02:01:14.691Z,94042.44
2023-02-22T02:03:42.339Z,94037.38
2023-02-22T02:06:14.338Z,94025.66
2023-02-22T02:08:49.738Z,94035.94
2023-02-22T02:11:20.149Z,94035.63
2023-02-22T02:13:49.735Z,94034.03
2023-02-22T02:16:16.454Z,94035.41
2023-02-22T02:18:43.228Z,94035.75
2023-02-22T02:21:16.058Z,94038.78
2023-02-22T02:24:00.828Z,94042.84
2023-02-22T02:26:47.360Z,94048.63
2023-02-22T02:29:36.875Z,94042.84
2023-02-22T02:32:06.594Z,94048.13
2023-02-22T02:34:39.820Z,94051.25
2023-02-22T02:37:12.309Z,94050.16
2023-02-22T02:40:06.535Z,94056.91
2023-02-22T02:42:43.553Z,94058.44
2023-02-22T02:45:19.244Z,94060.25
2023-02-22T02:47:52.250Z,94064.19
2023-02-22T02:50:24.770Z,94065.47
2023-02-22T02:52:55.515Z,94069.88
2023-02-22T02:55:22.609Z,94072.38
2023-02-22T02:57:49.157Z,94079.25
2023-02-22T03:00:25.063Z,94074.09
2023-02-22T03:03:00.787Z,94073.50
2023-02-22T03:05:39.312Z,94063.47
2023-02-22T03:08:18.127Z,94069.25
2023-02-22T03:11:15.429Z,94072.63
2023-02-22T03:14:04.224Z,94079.34
2023-02-22T03:16:52.823Z,94070.91
2023-02-22T03:19:40.649Z,94068.38
2023-02-22T03:22:33.650Z,94067.78
2023-02-22T03:25:02.181Z,94069.25
2023-02-22T03:27:38.055Z,94068.38
2023-02-22T03:30:29.262Z,94070.19
2023-02-22T03:33:09.170Z,94073.59
2023-02-22T03:35:41.334Z,94060.91
2023-02-22T03:38:11.409Z,94068.56
2023-02-22T03:40:43.468Z,94069.72
2023-02-22T03:43:25.093Z,94066.59
2023-02-22T03:45:52.182Z,94060.03
2023-02-22T03:48:31.434Z,94061.16
2023-02-22T03:50:58.549Z,94064.94
2023-02-22T03:53:25.626Z,94065.75
2023-02-22T03:55:55.594Z,94071.53
2023-02-22T03:58:25.155Z,94062.13
2023-02-22T04:00:53.438Z,94068.59
2023-02-22T04:03:21.292Z,94064.19
2023-02-22T04:05:48.568Z,94065.06
2023-02-22T04:08:15.588Z,94059.63
2023-02-22T04:10:42.479Z,94067.91
2023-02-22T04:13:10.330Z,94061.69
2023-02-22T04:15:37.283Z,94059.72
2023-02-22T04:18:04.315Z,94059.00
2023-02-22T04:20:31.812Z,94060.56
2023-02-22T04:22:58.464Z,94056.25
2023-02-22T04:25:25.061Z,94060.56
2023-02-22T04:27:52.157Z,94055.91
2023-02-22T04:30:19.714Z,94068.44
2023-02-22T04:32:46.394Z,94064.00
2023-02-22T04:35:12.992Z,94065.34
2023-02-22T04:37:39.631Z,94065.97
2023-02-22T04:40:11.564Z,94070.38
2023-02-22T04:42:39.008Z,94079.78
2023-02-22T04:45:08.124Z,94071.44
2023-02-22T04:47:36.102Z,94066.25
2023-02-22T04:50:03.906Z,94069.03
2023-02-22T04:52:30.560Z,94061.34
2023-02-22T04:54:57.166Z,94066.09
2023-02-22T04:57:24.040Z,94057.41
2023-02-22T04:59:51.355Z,94059.97
2023-02-22T05:02:18.745Z,94061.63
2023-02-22T05:04:45.647Z,94056.53
2023-02-22T05:07:12.434Z,94059.34
2023-02-22T05:09:39.163Z,94061.06
2023-02-22T05:12:06.069Z,94069.75
2023-02-22T05:14:33.042Z,94071.84
2023-02-22T05:17:00.724Z,94073.78
2023-02-22T05:19:27.342Z,94076.47
2023-02-22T05:21:54.149Z,94078.00
2023-02-22T05:24:20.805Z,94086.09
2023-02-22T05:26:47.425Z,94087.94
2023-02-22T05:29:14.514Z,94089.69
2023-02-22T05:31:42.068Z,94092.50
2023-02-22T05:34:09.153Z,94098.53
2023-02-22T05:36:35.878Z,94106.88
2023-02-22T05:39:03.982Z,94110.03
2023-02-22T05:41:30.618Z,94107.41
2023-02-22T05:43:59.178Z,94108.50
2023-02-22T05:46:25.849Z,94115.38
2023-02-22T05:48:52.559Z,94119.56
2023-02-22T05:51:19.755Z,94116.63
2023-02-22T05:53:46.444Z,94116.94
2023-02-22T05:56:13.019Z,94110.84
2023-02-22T05:58:39.631Z,94127.47
2023-02-22T06:01:06.283Z,94116.69
2023-02-22T06:03:36.306Z,94111.44
2023-02-22T06:06:03.194Z,94115.69
2023-02-22T06:08:31.206Z,94125.38
2023-02-22T06:10:58.699Z,94122.19
2023-02-22T06:13:25.801Z,94131.06
2023-02-22T06:15:52.774Z,94127.19
2023-02-22T06:18:19.410Z,94135.97
2023-02-22T06:21:00.055Z,94135.47
2023-02-22T06:23:27.374Z,94129.97
2023-02-22T06:25:54.070Z,94135.13
2023-02-22T06:28:20.741Z,94125.94
2023-02-22T06:30:47.560Z,94125.47
2023-02-22T06:33:14.195Z,94126.00
2023-02-22T06:35:40.903Z,94126.53
2023-02-22T06:38:07.589Z,94127.75
2023-02-22T06:40:34.203Z,94119.50
2023-02-22T06:43:00.870Z,94120.34
2023-02-22T06:45:27.609Z,94121.69
2023-02-22T06:47:54.490Z,94114.63
2023-02-22T06:50:29.015Z,94112.50
2023-02-22T06:52:56.846Z,94107.59
2023-02-22T06:55:26.127Z,94119.69
2023-02-22T06:57:53.016Z,94121.69
2023-02-22T07:00:21.996Z,94125.59
2023-02-22T07:02:49.021Z,94131.31
2023-02-22T07:05:17.221Z,94138.56
2023-02-22T07:07:43.783Z,94132.81
2023-02-22T07:10:22.351Z,94138.66
2023-02-22T07:12:49.242Z,94129.06
2023-02-22T07:15:18.264Z,94134.31
2023-02-22T07:17:45.167Z,94124.97
2023-02-22T07:20:11.899Z,94129.53
2023-02-22T07:22:39.350Z,94131.13
2023-02-22T07:25:10.040Z,94129.44
2023-02-22T07:27:38.321Z,94135.06
2023-02-22T07:30:07.345Z,94132.53
2023-02-22T07:32:34.041Z,94130.72
2023-02-22T07:35:02.980Z,94136.41
2023-02-22T07:37:30.336Z,94131.94
2023-02-22T07:39:56.958Z,94128.22
2023-02-22T07:42:23.848Z,94133.03
2023-02-22T07:44:50.421Z,94127.97
2023-02-22T07:47:17.068Z,94131.06
2023-02-22T07:49:43.669Z,94121.25
2023-02-22T07:52:10.324Z,94116.63
2023-02-22T07:54:36.965Z,94102.19
2023-02-22T07:57:03.728Z,94111.59
2023-02-22T07:59:30.363Z,94109.84
2023-02-22T08:01:56.998Z,94105.75
2023-02-22T08:04:23.693Z,94104.75
2023-02-22T08:06:50.450Z,94112.50
2023-02-22T08:09:17.084Z,94104.78
2023-02-22T08:11:43.710Z,94106.03
2023-02-22T08:14:10.294Z,94107.50
2023-02-22T08:16:36.951Z,94108.53
2023-02-22T08:19:03.544Z,94106.69
2023-02-22T08:21:30.502Z,94103.19
2023-02-22T08:23:57.145Z,94105.91
2023-02-22T08:26:25.439Z,94109.34
2023-02-22T08:28:52.179Z,94115.47
2023-02-22T08:31:19.243Z,94098.44
2023-02-22T08:33:50.036Z,94099.91
2023-02-22T08:36:17.657Z,94099.59
2023-02-22T08:38:44.308Z,94101.69
2023-02-22T08:41:11.024Z,94105.13
2023-02-22T08:43:37.678Z,94100.69
2023-02-22T08:46:04.575Z,94094.09
2023-02-22T08:48:31.288Z,94096.47
2023-02-22T08:50:58.135Z,94097.53
2023-02-22T08:53:24.785Z,94093.22
2023-02-22T08:55:51.487Z,94088.16
2023-02-22T08:58:18.142Z,94098.88
2023-02-22T09:00:45.186Z,94085.75
2023-02-22T09:03:14.181Z,94092.38
2023-02-22T09:05:42.178Z,94091.31
2023-02-22T09:08:08.949Z,94089.41
2023-02-22T09:10:36.238Z,94086.56
2023-02-22T09:13:04.143Z,94096.06
2023-02-22T09:15:32.122Z,94089.75
2023-02-22T09:17:59.680Z,94091.19
2023-02-22T09:20:27.538Z,94073.97
2023-02-22T09:22:55.338Z,94082.44
2023-02-22T09:25:23.484Z,94082.34
2023-02-22T09:27:52.276Z,94092.22
2023-02-22T09:30:24.739Z,94090.56
2023-02-22T09:32:57.837Z,94077.56
2023-02-22T09:35:27.408Z,94068.13
2023-02-22T09:38:00.213Z,94080.75
2023-02-22T09:40:30.648Z,94078.16
2023-02-22T09:43:17.991Z,94072.66
2023-02-22T09:46:05.927Z,94074.88
2023-02-22T09:48:36.476Z,94071.47
2023-02-22T09:51:11.840Z,94066.22
2023-02-22T09:53:44.181Z,94059.81
2023-02-22T09:56:18.330Z,94066.06
2023-02-22T09:58:48.806Z,94064.25
2023-02-22T10:01:45.216Z,94056.00
2023-02-22T10:04:22.172Z,94056.28
2023-02-22T10:06:57.673Z,94048.22
2023-02-22T10:09:29.277Z,94050.47
2023-02-22T10:12:02.806Z,94045.41
2023-02-22T10:14:35.154Z,94039.03
2023-02-22T10:17:33.438Z,94029.84
2023-02-22T10:20:18.895Z,94031.03
2023-02-22T10:23:04.660Z,94026.41
2023-02-22T10:25:36.599Z,94020.06
2023-02-22T10:28:15.876Z,94011.53
2023-02-22T10:30:54.743Z,94014.19
2023-02-22T10:33:29.815Z,94011.66
2023-02-22T10:35:56.509Z,93998.59
2023-02-22T10:38:26.723Z,93997.81
2023-02-22T10:40:59.837Z,93990.78
2023-02-22T10:43:26.933Z,93995.59
2023-02-22T10:45:58.297Z,93990.34
2023-02-22T10:48:26.634Z,93992.63
2023-02-22T10:50:58.526Z,93987.31
2023-02-22T10:53:27.648Z,93981.91
2023-02-22T10:56:13.134Z,93980.13
2023-02-22T10:58:51.887Z,93980.88
2023-02-22T11:01:32.600Z,93966.31
2023-02-22T11:04:10.541Z,93972.78
2023-02-22T11:06:39.670Z,93965.44
2023-02-22T11:09:10.408Z,93958.59
2023-02-22T11:11:39.883Z,93964.38
2023-02-22T11:14:07.494Z,93955.97
2023-02-22T11:16:40.771Z,93950.16
2023-02-22T11:19:16.288Z,93946.31
2023-02-22T11:21:44.025Z,93945.19
2023-02-22T11:24:13.863Z,93945.56
2023-02-22T11:26:49.208Z,93936.69
2023-02-22T11:29:22.759Z,93941.31
2023-02-22T11:31:49.819Z,93939.41
2023-02-22T11:34:45.919Z,93931.66
2023-02-22T11:37:34.644Z,93931.28
2023-02-22T11:40:21.470Z,93929.75
2023-02-22T11:43:12.379Z,93925.09
2023-02-22T11:45:44.149Z,93924.34
2023-02-22T11:48:21.098Z,93922.03
2023-02-22T11:50:56.510Z,93915.47
2023-02-22T11:53:47.988Z,93912.72
2023-02-22T11:56:36.950Z,93905.47
2023-02-22T11:59:21.682Z,93912.78
2023-02-22T12:01:48.211Z,93904.72
2023-02-22T12:04:53.601Z,93912.41
2023-02-22T12:07:44.632Z,93900.84
2023-02-22T12:10:27.707Z,93897.31
2023-02-22T12:13:13.609Z,93897.91
2023-02-22T12:16:01.499Z,93900.41
2023-02-22T12:18:59.203Z,93893.94
2023-02-22T12:21:30.273Z,93888.13
2023-02-22T12:24:07.260Z,93885.28
2023-02-22T12:26:41.515Z,93875.69
2023-02-22T12:29:29.537Z,93877.69
2023-02-22T12:32:22.302Z,93882.38
2023-02-22T12:34:56.087Z,93871.88
2023-02-22T12:37:28.157Z,93885.41
2023-02-22T12:40:14.942Z,93869.50
2023-02-22T12:42:52.169Z,93868.66
2023-02-22T12:45:30.870Z,93871.41
2023-02-22T12:48:18.633Z,93869.53
2023-02-22T12:50:54.113Z,93872.50
2023-02-22T12:53:38.284Z,93855.50
2023-02-22T12:56:37.247Z,93866.34
2023-02-22T12:59:23.118Z,93859.13
2023-02-22T13:01:58.411Z,93861.50
2023-02-22T13:04:27.736Z,93858.06
2023-02-22T13:07:10.224Z,93855.28
2023-02-22T13:09:43.050Z,93854.97
2023-02-22T13:12:12.649Z,93854.50
2023-02-22T13:14:51.400Z,93853.47
2023-02-22T13:18:04.885Z,93863.47
2023-02-22T13:21:09.392Z,93853.47
2023-02-22T13:24:11.189Z,93852.56
2023-02-22T13:26:54.342Z,93847.38
2023-02-22T13:29:28.846Z,93844.22
2023-02-22T13:32:29.087Z,93847.31
2023-02-22T13:34:56.834Z,93847.75
2023-02-22T13:37:54.956Z,93848.81
2023-02-22T13:40:36.625Z,93844.81
2023-02-22T13:43:09.302Z,93843.28
2023-02-22T13:45:36.609Z,93847.75
2023-02-22T13:48:13.370Z,93834.28
2023-02-22T13:50:58.074Z,93836.22
2023-02-22T13:53:29.445Z,93836.56
2023-02-22T13:55:59.276Z,93836.88
2023-02-22T13:58:26.121Z,93831.56
2023-02-22T14:00:58.595Z,93840.91
2023-02-22T14:03:34.324Z,93836.28
2023-02-22T14:06:01.870Z,93837.72
2023-02-22T14:08:28.889Z,93835.97
2023-02-22T14:10:57.685Z,93833.31
2023-02-22T14:13:29.268Z,93844.81
2023-02-22T14:16:00.015Z,93843.28
2023-02-22T14:18:36.000Z,93833.50
2023-02-22T14:21:13.492Z,93844.84
2023-02-22T14:23:42.231Z,93841.31
2023-02-22T14:26:42.678Z,93833.16
2023-02-22T14:29:12.754Z,93826.78
2023-02-22T14:31:44.959Z,93831.81
2023-02-22T14:34:17.558Z,93838.63
2023-02-22T14:37:01.117Z,93836.38
2023-02-22T14:39:43.575Z,93833.63
2023-02-22T14:42:31.464Z,93827.41
2023-02-22T14:45:03.176Z,93832.94
2023-02-22T14:47:39.910Z,93830.28
2023-02-22T14:50:23.182Z,93839.59
2023-02-22T14:53:01.199Z,93835.66
2023-02-22T14:55:31.499Z,93839.22
2023-02-22T14:58:18.779Z,93830.28
2023-02-22T15:00:47.809Z,93841.03
2023-02-22T15:03:37.543Z,93837.91
2023-02-22T15:06:22.034Z,93830.69
2023-02-22T15:09:04.464Z,93834.78
2023-02-22T15:11:34.624Z,93835.91
2023-02-22T15:14:02.619Z,93829.56
2023-02-22T15:16:34.247Z,93834.97
2023-02-22T15:19:07.873Z,93830.38
2023-02-22T15:21:35.574Z,93838.84
2023-02-22T15:24:07.813Z,93832.28
2023-02-22T15:27:00.279Z,93837.97
2023-02-22T15:29:40.165Z,93836.56
2023-02-22T15:32:56.995Z,93850.03
2023-02-22T15:35:31.806Z,93841.16
2023-02-22T15:38:20.171Z,93835.41
2023-02-22T15:40:50.696Z,93841.16
2023-02-22T15:43:24.410Z,93835.34
2023-02-22T15:45:52.285Z,93847.28
2023-02-22T15:48:19.422Z,93837.97
2023-02-22T15:51:19.982Z,93845.38
2023-02-22T15:53:48.659Z,93853.47
2023-02-22T15:56:19.184Z,93847.72
2023-02-22T15:58:47.659Z,93846.16
2023-02-22T16:01:18.939Z,93847.31
2023-02-22T16:03:53.173Z,93853.13
2023-02-22T16:06:36.016Z,93855.78
2023-02-22T16:09:30.375Z,93858.09
2023-02-22T16:12:21.397Z,93861.97
2023-02-22T16:14:52.557Z,93863.88
2023-02-22T16:17:25.464Z,93864.28
2023-02-22T16:19:53.172Z,93870.44
2023-02-22T16:22:35.756Z,93870.81
2023-02-22T16:25:27.234Z,93875.03
2023-02-22T16:27:58.026Z,93874.25
2023-02-22T16:30:39.991Z,93876.59
2023-02-22T16:33:13.474Z,93871.56
2023-02-22T16:35:40.564Z,93873.50
2023-02-22T16:38:16.940Z,93879.56
2023-02-22T16:40:55.502Z,93878.47
2023-02-22T16:43:24.572Z,93883.84
2023-02-22T16:45:52.987Z,93882.69
2023-02-22T16:48:21.364Z,93888.84
2023-02-22T16:50:51.200Z,93889.56
2023-02-22T16:53:21.087Z,93891.09
2023-02-22T16:55:48.927Z,93901.06
2023-02-22T16:58:18.222Z,93902.97
2023-02-22T17:00:45.004Z,93894.97
2023-02-22T17:03:17.609Z,93893.75
2023-02-22T17:05:44.778Z,93903.69
2023-02-22T17:08:11.431Z,93908.28
2023-02-22T17:10:38.307Z,93902.53
2023-02-22T17:13:21.785Z,93908.22
2023-02-22T17:15:49.799Z,93917.75
2023-02-22T17:18:22.548Z,93916.75
2023-02-22T17:20:51.020Z,93920.97
2023-02-22T17:23:18.179Z,93917.88
2023-02-22T17:26:05.141Z,93923.16
2023-02-22T17:28:32.194Z,93925.56
2023-02-22T17:31:02.985Z,93919.97
2023-02-22T17:33:33.045Z,93914.69
2023-02-22T17:36:02.185Z,93917.81
2023-02-22T17:38:30.391Z,93913.53
2023-02-22T17:40:58.884Z,93915.94
2023-02-22T17:43:27.871Z,93923.22
2023-02-22T17:45:55.052Z,93919.44
2023-02-22T17:48:23.984Z,93922.66
2023-02-22T17:50:51.485Z,93915.00
2023-02-22T17:53:21.866Z,93915.13
2023-02-22T17:55:49.364Z,93920.50
2023-02-22T17:58:16.424Z,93918.19
2023-02-22T18:00:46.668Z,93916.97
2023-02-22T18:03:21.135Z,93924.31
2023-02-22T18:05:49.847Z,93923.22
2023-02-22T18:08:16.496Z,93915.56
2023-02-22T18:10:43.837Z,93913.59
2023-02-22T18:13:16.828Z,93914.69
2023-02-22T18:15:44.062Z,93918.13
2023-02-22T18:18:11.431Z,93912.34
2023-02-22T18:20:43.880Z,93920.03
2023-02-22T18:23:19.785Z,93921.16
2023-02-22T18:26:07.686Z,93915.09
2023-02-22T18:28:36.466Z,93921.06
2023-02-22T18:31:10.133Z,93919.09
2023-02-22T18:33:37.218Z,93922.16
2023-02-22T18:36:04.647Z,93916.34
2023-02-22T18:38:31.339Z,93915.59
2023-02-22T18:41:06.699Z,93915.47
2023-02-22T18:43:40.498Z,93920.09
2023-02-22T18:46:16.181Z,93916.66
2023-02-22T18:48:43.903Z,93922.09
2023-02-22T18:51:13.302Z,93916.66
2023-02-22T18:53:46.621Z,93926.44
2023-02-22T18:56:21.989Z,93921.06
2023-02-22T18:58:53.589Z,93927.47
2023-02-22T19:01:20.713Z,93916.44
2023-02-22T19:03:47.888Z,93924.25
2023-02-22T19:06:15.737Z,93925.72
2023-02-22T19:08:44.104Z,93921.47
2023-02-22T19:11:17.874Z,93921.06
2023-02-22T19:13:48.975Z,93931.84
2023-02-22T19:16:19.860Z,93924.88
2023-02-22T19:18:53.286Z,93933.28
2023-02-22T19:21:21.110Z,93937.09
2023-02-22T19:23:49.251Z,93938.56
2023-02-22T19:26:24.088Z,93936.16
2023-02-22T19:28:52.869Z,93939.56
2023-02-22T19:31:25.954Z,93935.72
2023-02-22T19:33:52.997Z,93936.94
2023-02-22T19:36:23.149Z,93940.06
2023-02-22T19:38:49.957Z,93944.50
2023-02-22T19:41:20.280Z,93947.56
2023-02-22T19:43:48.829Z,93941.72
2023-02-22T19:46:21.178Z,93942.91
2023-02-22T19:48:49.332Z,93950.47
2023-02-22T19:51:17.632Z,93951.03
2023-02-22T19:53:45.484Z,93951.63
2023-02-22T19:56:18.924Z,93950.59
2023-02-22T19:58:48.390Z,93946.78
2023-02-22T20:01:23.247Z,93948.44
2023-02-22T20:03:54.432Z,93954.38
2023-02-22T20:06:28.095Z,93955.13
2023-02-22T20:08:55.887Z,93955.25
2023-02-22T20:11:23.565Z,93961.47
2023-02-22T20:13:50.684Z,93959.66
2023-02-22T20:16:17.314Z,93960.38
2023-02-22T20:18:45.385Z,93962.03
2023-02-22T20:21:20.214Z,93973.56
2023-02-22T20:23:47.262Z,93967.38
2023-02-22T20:26:24.312Z,93959.88
2023-02-22T20:28:52.297Z,93961.53
2023-02-22T20:31:20.258Z,93964.16
2023-02-22T20:33:49.589Z,93964.44
2023-02-22T20:36:18.574Z,93966.53
2023-02-22T20:38:45.650Z,93964.16
2023-02-22T20:41:15.271Z,93964.88
2023-02-22T20:43:42.081Z,93960.66
2023-02-22T20:46:08.778Z,93966.78
2023-02-22T20:48:35.460Z,93962.28
2023-02-22T20:51:06.844Z,93970.28
2023-02-22T20:53:34.512Z,93966.84
2023-02-22T20:56:01.812Z,93961.97
2023-02-22T20:58:29.318Z,93963.19
2023-02-22T21:00:55.916Z,93955.47
2023-02-22T21:03:22.724Z,93963.09
2023-02-22T21:05:49.368Z,93958.34
2023-02-22T21:08:15.931Z,93958.34
2023-02-22T21:10:44.324Z,93959.59
2023-02-22T21:13:11.635Z,93958.25
2023-02-22T21:15:43.450Z,93959.53
2023-02-22T21:18:11.211Z,93961.38
2023-02-22T21:20:40.763Z,93958.94
2023-02-22T21:23:08.306Z,93961.59
2023-02-22T21:25:34.983Z,93960.94
2023-02-22T21:28:01.931Z,93960.09
2023-02-22T21:30:29.518Z,93956.56
2023-02-22T21:32:56.194Z,93957.97
2023-02-22T21:35:24.615Z,93955.66
2023-02-22T21:37:52.554Z,93953.34
2023-02-22T21:40:19.676Z,93954.09
2023-02-22T21:42:48.134Z,93956.78
2023-02-22T21:45:20.713Z,93954.84
2023-02-22T21:47:49.020Z,93948.31
2023-02-22T21:50:19.596Z,93947.44
2023-02-22T21:52:47.849Z,93944.00
2023-02-22T21:55:15.051Z,93947.38
2023-02-22T21:57:42.960Z,93947.16
2023-02-22T22:00:18.403Z,93947.66
2023-02-22T22:02:46.290Z,93949.28
2023-02-22T22:05:18.147Z,93950.78
2023-02-22T22:07:44.755Z,93951.91
2023-02-22T22:10:17.053Z,93953.94
2023-02-22T22:12:46.248Z,93960.38
2023-02-22T22:15:17.667Z,93957.63
2023-02-22T22:17:45.131Z,93959.94
2023-02-22T22:20:16.618Z,93964.19
2023-02-22T22:22:46.095Z,93961.38
2023-02-22T22:25:17.167Z,93966.91
2023-02-22T22:27:44.245Z,93968.03
2023-02-22T22:30:11.956Z,93959.72
2023-02-22T22:32:39.050Z,93965.78
2023-02-22T22:35:09.526Z,93965.13
2023-02-22T22:37:36.126Z,93964.72
2023-02-22T22:40:05.046Z,93967.69
2023-02-22T22:42:31.641Z,93952.91
2023-02-22T22:44:58.260Z,93959.25
2023-02-22T22:47:24.901Z,93957.09
2023-02-22T22:49:52.933Z,93954.75
2023-02-22T22:52:19.620Z,93956.69
2023-02-22T22:54:46.223Z,93962.72
2023-02-22T22:57:13.700Z,93964.72
2023-02-22T22:59:40.317Z,93954.06
2023-02-22T23:02:10.933Z,93966.31
2023-02-22T23:04:38.093Z,93955.69
2023-02-22T23:07:06.634Z,93956.44
2023-02-22T23:09:35.060Z,93954.41
2023-02-22T23:12:15.093Z,93947.03
2023-02-22T23:14:46.087Z,93945.31
2023-02-22T23:17:31.106Z,93950.38
2023-02-22T23:19:58.005Z,93952.34
2023-02-22T23:22:24.777Z,93954.50
2023-02-22T23:24:51.383Z,93956.78
2023-02-22T23:27:19.046Z,93955.94
2023-02-22T23:29:46.882Z,93954.56
2023-02-22T23:32:14.365Z,93955.47
2023-02-22T23:34:41.615Z,93961.69
2023-02-22T23:37:10.442Z,93970.22
2023-02-22T23:39:37.846Z,93967.53
2023-02-22T23:42:04.736Z,93956.47
2023-02-22T23:44:31.534Z,93955.78
2023-02-22T23:46:58.222Z,93959.59
2023-02-22T23:49:38.032Z,93955.94
2023-02-22T23:52:06.363Z,93962.69
2023-02-22T23:54:36.612Z,93961.81
2023-02-22T23:57:04.604Z,93961.59
2023-02-22T23:59:32.763Z,93956.34
